sensor_id;sensor_type;location;lat;lon;timestamp;pressure;altitude;pressure_sealevel;temperature;humidity
34103;BME280;20381;54.498;18.206;2023-05-08T00:00:39;101003.14;;;5.01;48.97
34103;BME280;20381;54.498;18.206;2023-05-08T00:03:07;101001.46;;;4.94;48.84
34103;BME280;20381;54.498;18.206;2023-05-08T00:05:33;100998.89;;;4.86;49.01
34103;BME280;20381;54.498;18.206;2023-05-08T00:07:59;100997.17;;;4.84;49.21
34103;BME280;20381;54.498;18.206;2023-05-08T00:10:30;101004.09;;;4.85;49.31
34103;BME280;20381;54.498;18.206;2023-05-08T00:12:56;101004.10;;;4.82;49.41
34103;BME280;20381;54.498;18.206;2023-05-08T00:15:24;100997.20;;;4.78;49.58
34103;BME280;20381;54.498;18.206;2023-05-08T00:17:51;101003.68;;;4.75;49.67
34103;BME280;20381;54.498;18.206;2023-05-08T00:20:18;100998.09;;;4.70;49.76
34103;BME280;20381;54.498;18.206;2023-05-08T00:22:44;100998.53;;;4.68;49.76
34103;BME280;20381;54.498;18.206;2023-05-08T00:25:10;101000.67;;;4.67;49.98
34103;BME280;20381;54.498;18.206;2023-05-08T00:27:36;100995.50;;;4.64;50.03
34103;BME280;20381;54.498;18.206;2023-05-08T00:30:05;101002.84;;;4.63;50.14
34103;BME280;20381;54.498;18.206;2023-05-08T00:32:33;101004.57;;;4.61;50.28
34103;BME280;20381;54.498;18.206;2023-05-08T00:34:59;101000.70;;;4.58;50.35
34103;BME280;20381;54.498;18.206;2023-05-08T00:37:25;100997.27;;;4.55;50.43
34103;BME280;20381;54.498;18.206;2023-05-08T00:39:52;101001.14;;;4.50;50.48
34103;BME280;20381;54.498;18.206;2023-05-08T00:42:18;101003.31;;;4.49;50.66
34103;BME280;20381;54.498;18.206;2023-05-08T00:44:44;101005.46;;;4.49;50.82
34103;BME280;20381;54.498;18.206;2023-05-08T00:47:11;101004.18;;;4.51;50.92
34103;BME280;20381;54.498;18.206;2023-05-08T00:49:37;101005.02;;;4.53;50.94
34103;BME280;20381;54.498;18.206;2023-05-08T00:52:04;101001.13;;;4.53;50.93
34103;BME280;20381;54.498;18.206;2023-05-08T00:54:37;101000.30;;;4.51;51.02
34103;BME280;20381;54.498;18.206;2023-05-08T00:57:07;101001.13;;;4.53;51.14
34103;BME280;20381;54.498;18.206;2023-05-08T00:59:35;101000.30;;;4.51;51.17
34103;BME280;20381;54.498;18.206;2023-05-08T01:02:03;101001.59;;;4.51;51.26
34103;BME280;20381;54.498;18.206;2023-05-08T01:04:30;101004.16;;;4.48;51.34
34103;BME280;20381;54.498;18.206;2023-05-08T01:06:58;101001.58;;;4.45;51.47
34103;BME280;20381;54.498;18.206;2023-05-08T01:09:24;101008.05;;;4.42;51.53
34103;BME280;20381;54.498;18.206;2023-05-08T01:12:14;101009.80;;;4.40;51.53
34103;BME280;20381;54.498;18.206;2023-05-08T01:14:50;101018.83;;;4.37;51.77
34103;BME280;20381;54.498;18.206;2023-05-08T01:20:21;101016.69;;;4.30;51.79
34103;BME280;20381;54.498;18.206;2023-05-08T01:28:52;101014.11;;;4.22;52.16
34103;BME280;20381;54.498;18.206;2023-05-08T01:34:02;101029.20;;;4.12;52.28
34103;BME280;20381;54.498;18.206;2023-05-08T01:39:17;101022.72;;;4.03;52.54
34103;BME280;20381;54.498;18.206;2023-05-08T01:44:19;101024.45;;;3.99;52.73
34103;BME280;20381;54.498;18.206;2023-05-08T01:46:50;101025.74;;;3.96;52.85
34103;BME280;20381;54.498;18.206;2023-05-08T01:49:32;101020.56;;;3.95;53.04
34103;BME280;20381;54.498;18.206;2023-05-08T01:51:59;101024.02;;;3.94;53.05
34103;BME280;20381;54.498;18.206;2023-05-08T01:54:27;101024.02;;;3.91;53.09
34103;BME280;20381;54.498;18.206;2023-05-08T01:56:56;101025.31;;;3.94;53.15
34103;BME280;20381;54.498;18.206;2023-05-08T01:59:25;101022.30;;;3.96;53.24
34103;BME280;20381;54.498;18.206;2023-05-08T02:01:54;101028.75;;;3.94;53.17
34103;BME280;20381;54.498;18.206;2023-05-08T02:04:22;101028.31;;;3.92;53.30
34103;BME280;20381;54.498;18.206;2023-05-08T02:06:51;101025.73;;;3.86;53.35
34103;BME280;20381;54.498;18.206;2023-05-08T02:09:19;101035.64;;;3.78;53.31
34103;BME280;20381;54.498;18.206;2023-05-08T02:11:48;101030.89;;;3.73;53.36
34103;BME280;20381;54.498;18.206;2023-05-08T02:14:18;101034.31;;;3.69;53.57
34103;BME280;20381;54.498;18.206;2023-05-08T02:16:46;101034.31;;;3.69;53.68
34103;BME280;20381;54.498;18.206;2023-05-08T02:19:14;101035.19;;;3.71;53.82
34103;BME280;20381;54.498;18.206;2023-05-08T02:21:44;101033.48;;;3.73;53.92
34103;BME280;20381;54.498;18.206;2023-05-08T02:24:12;101032.61;;;3.74;53.92
34103;BME280;20381;54.498;18.206;2023-05-08T02:26:41;101038.62;;;3.78;53.93
34103;BME280;20381;54.498;18.206;2023-05-08T02:29:09;101036.48;;;3.80;53.95
34103;BME280;20381;54.498;18.206;2023-05-08T02:31:37;101039.52;;;3.81;53.95
34103;BME280;20381;54.498;18.206;2023-05-08T02:34:04;101042.10;;;3.81;54.17
34103;BME280;20381;54.498;18.206;2023-05-08T02:36:32;101030.48;;;3.78;54.05
34103;BME280;20381;54.498;18.206;2023-05-08T02:39:00;101038.20;;;3.77;54.21
34103;BME280;20381;54.498;18.206;2023-05-08T02:41:29;101034.77;;;3.76;54.20
34103;BME280;20381;54.498;18.206;2023-05-08T02:43:57;101039.94;;;3.76;54.29
34103;BME280;20381;54.498;18.206;2023-05-08T02:49:19;101049.86;;;3.85;54.60
34103;BME280;20381;54.498;18.206;2023-05-08T02:51:52;101054.16;;;3.89;54.51
34103;BME280;20381;54.498;18.206;2023-05-08T02:59:52;101059.32;;;3.95;54.65
34103;BME280;20381;54.498;18.206;2023-05-08T03:05:01;101059.36;;;4.04;54.74
34103;BME280;20381;54.498;18.206;2023-05-08T03:07:32;101050.73;;;4.11;54.82
34103;BME280;20381;54.498;18.206;2023-05-08T03:10:02;101055.89;;;4.14;54.63
34103;BME280;20381;54.498;18.206;2023-05-08T03:12:31;101055.48;;;4.10;54.58
34103;BME280;20381;54.498;18.206;2023-05-08T03:15:08;101065.36;;;4.06;54.73
34103;BME280;20381;54.498;18.206;2023-05-08T03:17:38;101063.66;;;4.05;54.61
34103;BME280;20381;54.498;18.206;2023-05-08T03:20:08;101058.48;;;3.96;54.78
34103;BME280;20381;54.498;18.206;2023-05-08T03:22:37;101058.48;;;3.93;54.76
34103;BME280;20381;54.498;18.206;2023-05-08T03:25:08;101054.61;;;3.93;54.84
34103;BME280;20381;54.498;18.206;2023-05-08T03:27:36;101055.90;;;3.93;55.01
34103;BME280;20381;54.498;18.206;2023-05-08T03:30:04;101062.78;;;3.94;54.92
34103;BME280;20381;54.498;18.206;2023-05-08T03:32:32;101060.20;;;3.97;54.92
34103;BME280;20381;54.498;18.206;2023-05-08T03:35:00;101058.91;;;3.97;55.18
34103;BME280;20381;54.498;18.206;2023-05-08T03:37:27;101061.94;;;4.01;55.24
34103;BME280;20381;54.498;18.206;2023-05-08T03:39:54;101059.36;;;3.98;55.52
34103;BME280;20381;54.498;18.206;2023-05-08T03:42:22;101055.45;;;3.92;55.22
34103;BME280;20381;54.498;18.206;2023-05-08T03:44:50;101052.44;;;3.91;55.23
34103;BME280;20381;54.498;18.206;2023-05-08T03:47:19;101058.48;;;3.90;55.31
34103;BME280;20381;54.498;18.206;2023-05-08T03:49:47;101057.61;;;3.91;55.33
34103;BME280;20381;54.498;18.206;2023-05-08T03:52:15;101061.06;;;3.93;55.39
34103;BME280;20381;54.498;18.206;2023-05-08T03:54:41;101065.36;;;4.03;55.57
34103;BME280;20381;54.498;18.206;2023-05-08T03:57:09;101061.06;;;4.14;55.66
34103;BME280;20381;54.498;18.206;2023-05-08T03:59:51;101056.34;;;4.28;55.80
34103;BME280;20381;54.498;18.206;2023-05-08T04:07:47;101061.91;;;4.56;55.74
34103;BME280;20381;54.498;18.206;2023-05-08T04:12:56;101055.86;;;4.69;56.02
34103;BME280;20381;54.498;18.206;2023-05-08T04:15:24;101060.16;;;4.78;55.99
34103;BME280;20381;54.498;18.206;2023-05-08T04:18:03;101061.86;;;4.87;56.13
34103;BME280;20381;54.498;18.206;2023-05-08T04:20:26;101061.00;;;4.91;56.21
34103;BME280;20381;54.498;18.206;2023-05-08T04:22:54;101072.16;;;5.08;56.29
34103;BME280;20381;54.498;18.206;2023-05-08T04:25:23;101066.95;;;5.24;56.30
34103;BME280;20381;54.498;18.206;2023-05-08T04:27:51;101073.35;;;5.41;56.39
34103;BME280;20381;54.498;18.206;2023-05-08T04:30:19;101068.50;;;5.58;56.36
34103;BME280;20381;54.498;18.206;2023-05-08T04:32:46;101078.31;;;5.79;56.44
34103;BME280;20381;54.498;18.206;2023-05-08T04:35:16;101080.40;;;5.99;56.52
34103;BME280;20381;54.498;18.206;2023-05-08T04:37:43;101078.92;;;6.21;56.55
34103;BME280;20381;54.498;18.206;2023-05-08T04:40:10;101084.37;;;6.43;56.56
34103;BME280;20381;54.498;18.206;2023-05-08T04:42:37;101085.07;;;6.61;56.77
34103;BME280;20381;54.498;18.206;2023-05-08T04:45:06;101081.42;;;6.80;56.64
34103;BME280;20381;54.498;18.206;2023-05-08T04:47:34;101084.73;;;6.98;56.50
34103;BME280;20381;54.498;18.206;2023-05-08T04:50:00;101092.78;;;7.12;56.48
34103;BME280;20381;54.498;18.206;2023-05-08T04:52:27;101088.29;;;7.27;56.57
34103;BME280;20381;54.498;18.206;2023-05-08T04:54:53;101085.89;;;7.45;56.51
34103;BME280;20381;54.498;18.206;2023-05-08T04:57:19;101084.78;;;7.64;56.46
34103;BME280;20381;54.498;18.206;2023-05-08T04:59:46;101084.53;;;7.82;56.54
34103;BME280;20381;54.498;18.206;2023-05-08T05:02:12;101089.45;;;8.01;56.55
34103;BME280;20381;54.498;18.206;2023-05-08T05:04:39;101085.69;;;8.20;56.48
34103;BME280;20381;54.498;18.206;2023-05-08T05:07:05;101083.58;;;8.45;56.53
34103;BME280;20381;54.498;18.206;2023-05-08T05:09:31;101092.34;;;8.65;56.45
34103;BME280;20381;54.498;18.206;2023-05-08T05:11:59;101092.41;;;8.88;56.50
34103;BME280;20381;54.498;18.206;2023-05-08T05:14:25;101101.05;;;9.12;56.42
34103;BME280;20381;54.498;18.206;2023-05-08T05:16:52;101103.70;;;9.32;55.99
34103;BME280;20381;54.498;18.206;2023-05-08T05:19:18;101099.91;;;9.48;56.04
34103;BME280;20381;54.498;18.206;2023-05-08T05:21:45;101106.05;;;9.67;55.98
34103;BME280;20381;54.498;18.206;2023-05-08T05:24:11;101106.09;;;9.83;55.96
34103;BME280;20381;54.498;18.206;2023-05-08T05:26:42;101104.32;;;10.04;55.95
34103;BME280;20381;54.498;18.206;2023-05-08T05:29:08;101111.66;;;10.26;55.67
34103;BME280;20381;54.498;18.206;2023-05-08T05:31:34;101105.23;;;10.41;55.71
34103;BME280;20381;54.498;18.206;2023-05-08T05:34:00;101110.95;;;10.57;55.67
34103;BME280;20381;54.498;18.206;2023-05-08T05:36:26;101118.94;;;10.67;55.66
34103;BME280;20381;54.498;18.206;2023-05-08T05:38:54;101119.88;;;10.82;55.52
34103;BME280;20381;54.498;18.206;2023-05-08T05:41:20;101115.59;;;10.96;55.42
34103;BME280;20381;54.498;18.206;2023-05-08T05:43:47;101110.81;;;11.12;55.45
34103;BME280;20381;54.498;18.206;2023-05-08T05:46:13;101118.02;;;11.35;55.23
34103;BME280;20381;54.498;18.206;2023-05-08T05:48:39;101115.37;;;11.66;55.55
34103;BME280;20381;54.498;18.206;2023-05-08T05:51:06;101111.69;;;12.16;55.38
34103;BME280;20381;54.498;18.206;2023-05-08T05:53:32;101112.36;;;12.36;54.96
34103;BME280;20381;54.498;18.206;2023-05-08T05:55:58;101110.28;;;12.46;54.58
34103;BME280;20381;54.498;18.206;2023-05-08T05:58:25;101116.84;;;12.59;54.42
34103;BME280;20381;54.498;18.206;2023-05-08T06:00:51;101114.71;;;12.70;54.27
34103;BME280;20381;54.498;18.206;2023-05-08T06:03:17;101114.70;;;12.84;53.98
34103;BME280;20381;54.498;18.206;2023-05-08T06:05:45;101111.18;;;12.96;53.88
34103;BME280;20381;54.498;18.206;2023-05-08T06:08:12;101115.94;;;13.10;53.58
34103;BME280;20381;54.498;18.206;2023-05-08T06:10:38;101117.61;;;13.25;52.83
34103;BME280;20381;54.498;18.206;2023-05-08T06:13:04;101118.76;;;13.31;53.15
34103;BME280;20381;54.498;18.206;2023-05-08T06:15:31;101120.92;;;13.43;52.84
34103;BME280;20381;54.498;18.206;2023-05-08T06:17:58;101122.57;;;13.57;52.53
34103;BME280;20381;54.498;18.206;2023-05-08T06:20:25;101123.33;;;13.73;51.67
34103;BME280;20381;54.498;18.206;2023-05-08T06:22:51;101122.60;;;13.91;52.32
34103;BME280;20381;54.498;18.206;2023-05-08T06:25:17;101115.84;;;14.07;52.06
34103;BME280;20381;54.498;18.206;2023-05-08T06:27:44;101120.38;;;14.26;50.21
34103;BME280;20381;54.498;18.206;2023-05-08T06:30:11;101113.55;;;14.42;51.51
34103;BME280;20381;54.498;18.206;2023-05-08T06:32:38;101116.77;;;14.61;51.11
34103;BME280;20381;54.498;18.206;2023-05-08T06:35:05;101120.07;;;14.86;51.21
34103;BME280;20381;54.498;18.206;2023-05-08T06:37:31;101115.59;;;15.09;50.99
34103;BME280;20381;54.498;18.206;2023-05-08T06:39:57;101121.09;;;15.33;50.14
34103;BME280;20381;54.498;18.206;2023-05-08T06:42:24;101116.61;;;15.54;50.80
34103;BME280;20381;54.498;18.206;2023-05-08T06:44:50;101114.08;;;15.91;50.55
34103;BME280;20381;54.498;18.206;2023-05-08T06:47:19;101110.34;;;16.41;51.08
34103;BME280;20381;54.498;18.206;2023-05-08T06:49:45;101107.17;;;17.04;51.08
34103;BME280;20381;54.498;18.206;2023-05-08T06:52:12;101109.72;;;17.63;50.60
34103;BME280;20381;54.498;18.206;2023-05-08T06:54:38;101110.09;;;18.21;50.12
34103;BME280;20381;54.498;18.206;2023-05-08T06:57:06;101107.66;;;18.78;50.03
34103;BME280;20381;54.498;18.206;2023-05-08T06:59:33;101105.23;;;19.32;50.03
34103;BME280;20381;54.498;18.206;2023-05-08T07:02:00;101099.66;;;20.07;49.98
34103;BME280;20381;54.498;18.206;2023-05-08T07:04:26;101091.50;;;20.90;49.07
34103;BME280;20381;54.498;18.206;2023-05-08T07:06:53;101096.67;;;21.55;48.40
34103;BME280;20381;54.498;18.206;2023-05-08T07:09:19;101096.78;;;22.15;47.72
34103;BME280;20381;54.498;18.206;2023-05-08T07:11:45;101098.23;;;22.67;47.49
34103;BME280;20381;54.498;18.206;2023-05-08T07:14:13;101095.44;;;23.26;47.39
34103;BME280;20381;54.498;18.206;2023-05-08T07:16:39;101099.72;;;24.06;46.30
34103;BME280;20381;54.498;18.206;2023-05-08T07:19:05;101097.73;;;24.93;45.71
34103;BME280;20381;54.498;18.206;2023-05-08T07:21:32;101091.12;;;25.99;45.64
34103;BME280;20381;54.498;18.206;2023-05-08T07:24:01;101093.47;;;26.90;44.74
34103;BME280;20381;54.498;18.206;2023-05-08T07:26:27;101091.88;;;27.85;44.16
34103;BME280;20381;54.498;18.206;2023-05-08T07:28:54;101086.77;;;28.98;43.94
34103;BME280;20381;54.498;18.206;2023-05-08T07:31:20;101086.54;;;30.06;42.89
34103;BME280;20381;54.498;18.206;2023-05-08T07:33:47;101083.16;;;30.94;42.38
34103;BME280;20381;54.498;18.206;2023-05-08T07:36:13;101092.05;;;31.59;40.26
34103;BME280;20381;54.498;18.206;2023-05-08T07:38:39;101087.47;;;31.99;33.83
34103;BME280;20381;54.498;18.206;2023-05-08T07:41:05;101085.20;;;31.79;38.02
34103;BME280;20381;54.498;18.206;2023-05-08T07:43:32;101085.22;;;32.48;36.30
34103;BME280;20381;54.498;18.206;2023-05-08T07:45:59;101077.20;;;33.23;35.12
34103;BME280;20381;54.498;18.206;2023-05-08T07:48:25;101072.52;;;33.31;34.76
34103;BME280;20381;54.498;18.206;2023-05-08T07:50:51;101083.17;;;33.03;34.06
34103;BME280;20381;54.498;18.206;2023-05-08T07:53:18;101081.39;;;33.10;30.84
34103;BME280;20381;54.498;18.206;2023-05-08T07:55:44;101058.30;;;34.56;31.53
34103;BME280;20381;54.498;18.206;2023-05-08T07:58:11;101058.30;;;34.56;31.53
34103;BME280;20381;54.498;18.206;2023-05-08T08:00:39;101078.34;;;35.48;29.96
34103;BME280;20381;54.498;18.206;2023-05-08T08:03:05;101062.84;;;35.35;27.87
34103;BME280;20381;54.498;18.206;2023-05-08T08:05:32;101076.42;;;35.35;27.68
34103;BME280;20381;54.498;18.206;2023-05-08T08:08:00;101075.10;;;35.18;24.91
34103;BME280;20381;54.498;18.206;2023-05-08T08:10:26;101067.34;;;35.39;26.43
34103;BME280;20381;54.498;18.206;2023-05-08T08:12:52;101069.98;;;36.31;25.77
34103;BME280;20381;54.498;18.206;2023-05-08T08:15:19;101076.66;;;36.15;24.31
34103;BME280;20381;54.498;18.206;2023-05-08T08:17:46;101078.02;;;35.23;22.05
34103;BME280;20381;54.498;18.206;2023-05-08T08:20:14;101077.08;;;34.68;22.62
34103;BME280;20381;54.498;18.206;2023-05-08T08:22:41;101081.64;;;35.37;23.26
34103;BME280;20381;54.498;18.206;2023-05-08T08:25:08;101086.47;;;35.41;19.93
34103;BME280;20381;54.498;18.206;2023-05-08T08:27:34;101083.01;;;35.13;21.26
34103;BME280;20381;54.498;18.206;2023-05-08T08:30:00;101078.23;;;36.20;21.71
34103;BME280;20381;54.498;18.206;2023-05-08T08:32:26;101067.81;;;37.06;21.35
34103;BME280;20381;54.498;18.206;2023-05-08T08:34:53;101071.36;;;37.58;20.00
34103;BME280;20381;54.498;18.206;2023-05-08T08:37:19;101069.63;;;37.71;20.13
34103;BME280;20381;54.498;18.206;2023-05-08T08:39:45;101070.92;;;38.16;20.00
34103;BME280;20381;54.498;18.206;2023-05-08T08:42:13;101078.64;;;38.69;19.65
34103;BME280;20381;54.498;18.206;2023-05-08T08:44:39;101073.83;;;39.17;19.21
34103;BME280;20381;54.498;18.206;2023-05-08T08:47:12;101076.79;;;39.34;18.90
34103;BME280;20381;54.498;18.206;2023-05-08T08:49:47;101067.41;;;40.02;18.71
34103;BME280;20381;54.498;18.206;2023-05-08T08:52:25;101072.89;;;40.23;17.22
34103;BME280;20381;54.498;18.206;2023-05-08T08:54:55;101070.95;;;39.91;17.62
34103;BME280;20381;54.498;18.206;2023-05-08T08:57:22;101075.57;;;40.44;16.43
34103;BME280;20381;54.498;18.206;2023-05-08T08:59:49;101072.53;;;40.10;15.80
34103;BME280;20381;54.498;18.206;2023-05-08T09:02:18;101072.98;;;39.83;15.48
34103;BME280;20381;54.498;18.206;2023-05-08T09:04:52;101068.03;;;40.16;16.24
34103;BME280;20381;54.498;18.206;2023-05-08T09:07:17;101062.35;;;41.40;16.05
34103;BME280;20381;54.498;18.206;2023-05-08T09:09:46;101063.44;;;40.07;14.96
34103;BME280;20381;54.498;18.206;2023-05-08T09:12:13;101064.66;;;37.03;14.94
34103;BME280;20381;54.498;18.206;2023-05-08T09:14:39;101062.47;;;36.53;14.92
34103;BME280;20381;54.498;18.206;2023-05-08T09:17:06;101055.69;;;37.85;15.14
34103;BME280;20381;54.498;18.206;2023-05-08T09:19:32;101060.93;;;39.24;14.92
34103;BME280;20381;54.498;18.206;2023-05-08T09:22:00;101064.75;;;40.25;14.63
34103;BME280;20381;54.498;18.206;2023-05-08T09:24:53;101067.59;;;39.77;13.16
34103;BME280;20381;54.498;18.206;2023-05-08T09:27:26;101058.55;;;38.72;13.63
34103;BME280;20381;54.498;18.206;2023-05-08T09:30:07;101057.77;;;38.06;13.56
34103;BME280;20381;54.498;18.206;2023-05-08T09:32:37;101056.85;;;37.19;13.44
34103;BME280;20381;54.498;18.206;2023-05-08T09:35:05;101058.41;;;37.25;13.09
34103;BME280;20381;54.498;18.206;2023-05-08T09:37:32;101055.05;;;37.29;12.27
34103;BME280;20381;54.498;18.206;2023-05-08T09:40:19;101049.31;;;37.67;13.22
34103;BME280;20381;54.498;18.206;2023-05-08T09:42:49;101045.77;;;39.01;13.50
34103;BME280;20381;54.498;18.206;2023-05-08T09:45:27;101038.45;;;40.48;13.21
34103;BME280;20381;54.498;18.206;2023-05-08T09:47:54;101035.58;;;41.04;13.26
34103;BME280;20381;54.498;18.206;2023-05-08T09:50:20;101035.39;;;41.94;12.59
34103;BME280;20381;54.498;18.206;2023-05-08T09:52:47;101037.45;;;42.01;13.08
34103;BME280;20381;54.498;18.206;2023-05-08T09:55:16;101029.81;;;43.01;12.56
34103;BME280;20381;54.498;18.206;2023-05-08T09:57:57;101036.78;;;43.30;12.35
34103;BME280;20381;54.498;18.206;2023-05-08T10:00:25;101023.98;;;43.71;12.50
34103;BME280;20381;54.498;18.206;2023-05-08T10:02:57;101026.34;;;43.92;10.72
34103;BME280;20381;54.498;18.206;2023-05-08T10:05:29;101031.83;;;43.32;11.62
34103;BME280;20381;54.498;18.206;2023-05-08T10:08:20;101029.72;;;43.64;11.81
34103;BME280;20381;54.498;18.206;2023-05-08T10:10:47;101034.96;;;43.68;10.85
34103;BME280;20381;54.498;18.206;2023-05-08T10:13:13;101027.48;;;42.15;10.89
34103;BME280;20381;54.498;18.206;2023-05-08T10:15:42;101028.52;;;40.94;11.29
34103;BME280;20381;54.498;18.206;2023-05-08T10:18:10;101019.79;;;41.49;11.50
34103;BME280;20381;54.498;18.206;2023-05-08T10:20:42;101015.42;;;42.94;11.31
34103;BME280;20381;54.498;18.206;2023-05-08T10:23:17;101021.09;;;43.88;11.15
34103;BME280;20381;54.498;18.206;2023-05-08T10:25:46;101015.98;;;44.39;9.89
34103;BME280;20381;54.498;18.206;2023-05-08T10:28:23;101027.64;;;43.27;9.43
34103;BME280;20381;54.498;18.206;2023-05-08T10:30:49;101014.67;;;42.37;10.27
34103;BME280;20381;54.498;18.206;2023-05-08T10:33:19;101021.59;;;42.62;9.17
34103;BME280;20381;54.498;18.206;2023-05-08T10:35:47;101020.59;;;41.64;9.96
34103;BME280;20381;54.498;18.206;2023-05-08T10:38:14;101010.91;;;42.26;10.40
34103;BME280;20381;54.498;18.206;2023-05-08T10:40:42;101014.98;;;43.51;10.08
34103;BME280;20381;54.498;18.206;2023-05-08T10:43:09;101009.84;;;41.05;9.83
34103;BME280;20381;54.498;18.206;2023-05-08T10:45:40;101013.95;;;39.25;9.68
34103;BME280;20381;54.498;18.206;2023-05-08T10:53:47;100998.25;;;36.05;10.68
34103;BME280;20381;54.498;18.206;2023-05-08T10:56:13;101009.00;;;36.92;10.20
34103;BME280;20381;54.498;18.206;2023-05-08T10:58:41;101008.90;;;36.20;10.16
34103;BME280;20381;54.498;18.206;2023-05-08T11:01:10;101001.67;;;35.97;10.37
34103;BME280;20381;54.498;18.206;2023-05-08T11:03:43;100998.74;;;36.32;10.55
34103;BME280;20381;54.498;18.206;2023-05-08T11:06:13;100993.34;;;36.05;10.29
34103;BME280;20381;54.498;18.206;2023-05-08T11:08:49;100997.34;;;35.65;10.55
34103;BME280;20381;54.498;18.206;2023-05-08T11:13:54;100985.12;;;33.01;10.73
34103;BME280;20381;54.498;18.206;2023-05-08T11:19:23;100976.52;;;31.23;11.23
34103;BME280;20381;54.498;18.206;2023-05-08T11:22:15;100983.34;;;31.34;11.73
34103;BME280;20381;54.498;18.206;2023-05-08T11:24:53;100987.56;;;30.25;11.55
34103;BME280;20381;54.498;18.206;2023-05-08T11:27:37;100993.00;;;28.61;12.95
34103;BME280;20381;54.498;18.206;2023-05-08T11:30:34;100980.83;;;28.26;12.79
34103;BME280;20381;54.498;18.206;2023-05-08T11:41:06;100972.39;;;28.21;13.87
34103;BME280;20381;54.498;18.206;2023-05-08T11:46:20;100967.55;;;28.77;14.32
34103;BME280;20381;54.498;18.206;2023-05-08T11:48:46;100968.44;;;28.33;14.30
34103;BME280;20381;54.498;18.206;2023-05-08T11:51:15;100974.95;;;28.05;14.48
34103;BME280;20381;54.498;18.206;2023-05-08T11:53:42;100975.52;;;28.13;14.90
34103;BME280;20381;54.498;18.206;2023-05-08T11:56:09;100995.02;;;27.97;15.10
34103;BME280;20381;54.498;18.206;2023-05-08T11:58:35;100984.53;;;26.98;14.69
34103;BME280;20381;54.498;18.206;2023-05-08T12:01:05;100994.05;;;26.07;15.65
34103;BME280;20381;54.498;18.206;2023-05-08T12:03:31;100985.40;;;25.45;15.43
34103;BME280;20381;54.498;18.206;2023-05-08T12:05:58;100996.53;;;25.15;16.39
34103;BME280;20381;54.498;18.206;2023-05-08T12:08:25;100980.80;;;24.45;15.76
34103;BME280;20381;54.498;18.206;2023-05-08T12:10:54;100994.48;;;23.50;16.98
34103;BME280;20381;54.498;18.206;2023-05-08T12:13:30;100989.31;;;22.52;16.46
34103;BME280;20381;54.498;18.206;2023-05-08T12:15:57;100989.56;;;21.60;17.01
34103;BME280;20381;54.498;18.206;2023-05-08T12:18:25;100979.59;;;20.70;18.45
34103;BME280;20381;54.498;18.206;2023-05-08T12:20:59;100982.70;;;20.11;18.22
34103;BME280;20381;54.498;18.206;2023-05-08T12:23:29;100990.92;;;19.60;20.61
34103;BME280;20381;54.498;18.206;2023-05-08T12:25:59;100984.03;;;19.01;19.94
34103;BME280;20381;54.498;18.206;2023-05-08T12:28:26;100989.11;;;18.62;19.01
34103;BME280;20381;54.498;18.206;2023-05-08T12:30:53;100988.70;;;18.32;21.35
34103;BME280;20381;54.498;18.206;2023-05-08T12:33:20;100991.06;;;17.99;22.58
34103;BME280;20381;54.498;18.206;2023-05-08T12:35:47;100989.42;;;17.74;20.49
34103;BME280;20381;54.498;18.206;2023-05-08T12:38:18;100982.87;;;17.49;20.83
34103;BME280;20381;54.498;18.206;2023-05-08T12:40:48;100995.23;;;17.17;22.44
34103;BME280;20381;54.498;18.206;2023-05-08T12:43:16;100987.00;;;16.90;22.40
34103;BME280;20381;54.498;18.206;2023-05-08T12:45:42;100983.61;;;16.70;21.74
34103;BME280;20381;54.498;18.206;2023-05-08T12:48:11;100981.36;;;16.63;23.07
34103;BME280;20381;54.498;18.206;2023-05-08T12:50:47;100995.09;;;16.52;23.79
34103;BME280;20381;54.498;18.206;2023-05-08T12:53:17;100986.43;;;16.32;22.43
34103;BME280;20381;54.498;18.206;2023-05-08T12:56:07;100981.80;;;16.20;22.22
34103;BME280;20381;54.498;18.206;2023-05-08T12:58:26;100987.07;;;16.20;24.90
34103;BME280;20381;54.498;18.206;2023-05-08T13:01:05;100971.09;;;16.23;23.35
34103;BME280;20381;54.498;18.206;2023-05-08T13:03:34;100986.91;;;16.23;25.10
34103;BME280;20381;54.498;18.206;2023-05-08T13:06:01;100991.71;;;16.15;23.59
34103;BME280;20381;54.498;18.206;2023-05-08T13:08:37;100977.16;;;16.08;25.74
34103;BME280;20381;54.498;18.206;2023-05-08T13:11:10;100977.91;;;16.10;24.43
34103;BME280;20381;54.498;18.206;2023-05-08T13:13:44;100990.92;;;16.13;25.69
34103;BME280;20381;54.498;18.206;2023-05-08T13:16:14;100983.17;;;15.93;26.12
34103;BME280;20381;54.498;18.206;2023-05-08T13:18:47;100967.84;;;15.83;24.85
34103;BME280;20381;54.498;18.206;2023-05-08T13:21:17;100965.66;;;15.74;24.74
34103;BME280;20381;54.498;18.206;2023-05-08T13:23:43;100964.88;;;15.72;25.35
34103;BME280;20381;54.498;18.206;2023-05-08T13:26:13;100974.36;;;15.66;24.86
34103;BME280;20381;54.498;18.206;2023-05-08T13:28:39;100973.05;;;15.66;25.48
34103;BME280;20381;54.498;18.206;2023-05-08T13:31:05;100972.11;;;15.67;26.56
34103;BME280;20381;54.498;18.206;2023-05-08T13:33:33;100966.99;;;15.64;26.62
34103;BME280;20381;54.498;18.206;2023-05-08T13:36:00;100956.20;;;15.60;26.33
34103;BME280;20381;54.498;18.206;2023-05-08T13:38:26;100968.05;;;15.60;27.48
34103;BME280;20381;54.498;18.206;2023-05-08T13:40:55;100958.46;;;15.59;26.80
34103;BME280;20381;54.498;18.206;2023-05-08T13:43:21;100953.88;;;15.54;25.96
34103;BME280;20381;54.498;18.206;2023-05-08T13:45:48;100961.02;;;15.52;26.55
34103;BME280;20381;54.498;18.206;2023-05-08T13:48:14;100966.66;;;15.53;28.27